Rose Hill, Alabama
Current Conditions -  °F | °C
As of 7:53 PM on Monday 24 Nov 2014 (Local Time) from KBHM Reporting Station
Clear Clear  
Wind Chill: 53°   Ceiling: Unl
Heat Index: 53°   Visibility: 10mi
Dew Point: 39°   Wind: 5mph
Humidity: 59%   Direction: 260°W
Pressure: 30.01"   Gusts: NA
Location:  33.5393°N, 86.6626°W
Report Text: KBHM 250153Z 26004KT 10SM CLR 12/04 A3001 RMK AO2 SLP161 T01170039
Loading
Personal Weather Stations






























Interactive Weather Map New forecast layout! Learn more

10-Day Weather Forecast

Advertisements
Track Severe Weather on mobile